Time;durP1;ratioP1;P1;durP2;ratioP2;P2;SDS_P1;SDS_P2;PMS_P1;PMS_P2;Temp;Humidity;BMP_temperature;BMP_pressure;BME280_temperature;BME280_humidity;BME280_pressure;Samples;Min_cycle;Max_cycle;Signal;HPM_P1;HPM_P2
2024/01/27 00:01:13;;;;;;;0.93;0.93;;;;;;;3.52;76.85;98805.38;4954489;28;20047;-77
2024/01/27 00:03:41;;;;;;;1.25;1.25;;;;;;;3.49;77.25;98803.81;4954869;29;20775;-76
2024/01/27 00:06:09;;;;;;;1.05;1.05;;;;;;;3.54;76.90;98814.81;4958641;28;20339;-77
2024/01/27 00:08:38;;;;;;;1.30;1.30;;;;;;;3.57;76.64;98808.47;4955858;28;20513;-76
2024/01/27 00:11:05;;;;;;;0.98;0.98;;;;;;;3.42;77.21;98802.63;4954019;28;20057;-75
2024/01/27 00:13:33;;;;;;;1.17;1.17;;;;;;;3.39;77.36;98807.28;4956208;28;20057;-75
2024/01/27 00:16:01;;;;;;;0.95;0.95;;;;;;;3.33;77.81;98816.50;4954662;28;20082;-77
2024/01/27 00:18:28;;;;;;;1.15;1.15;;;;;;;3.33;78.06;98814.69;4954992;29;20122;-76
2024/01/27 00:20:56;;;;;;;1.10;1.10;;;;;;;3.27;78.57;98817.81;4955863;28;20071;-76
2024/01/27 00:23:24;;;;;;;0.85;0.85;;;;;;;3.35;78.34;98819.03;4955708;28;20051;-76
2024/01/27 00:25:52;;;;;;;1.20;1.20;;;;;;;3.31;77.83;98819.28;4955341;28;20109;-77
2024/01/27 00:28:20;;;;;;;0.90;0.90;;;;;;;3.40;77.48;98816.88;4956681;29;20074;-77
2024/01/27 00:30:48;;;;;;;1.02;1.02;;;;;;;3.46;77.40;98827.78;4956806;28;20050;-77
2024/01/27 00:33:15;;;;;;;0.98;0.98;;;;;;;3.33;77.65;98819.13;4956509;29;20138;-77
2024/01/27 00:35:43;;;;;;;1.13;1.13;;;;;;;3.19;78.13;98814.94;4955482;28;20087;-77
2024/01/27 00:38:11;;;;;;;0.95;0.95;;;;;;;3.12;78.50;98812.88;4955773;28;20074;-76
2024/01/27 00:40:38;;;;;;;1.05;1.05;;;;;;;3.10;78.56;98818.28;4954642;28;20129;-75
2024/01/27 00:43:07;;;;;;;1.00;1.00;;;;;;;3.15;78.13;98817.91;4954847;29;20111;-73
2024/01/27 00:45:35;;;;;;;1.02;1.02;;;;;;;3.01;78.57;98812.88;4941350;28;20051;-75
2024/01/27 00:48:03;;;;;;;1.05;1.05;;;;;;;2.97;78.59;98817.53;4956922;28;20070;-76
2024/01/27 00:50:31;;;;;;;1.08;1.08;;;;;;;3.14;78.04;98818.88;4954142;28;20541;-74
2024/01/27 00:52:59;;;;;;;0.98;0.98;;;;;;;3.00;78.16;98819.94;4954523;28;20039;-75
2024/01/27 00:55:26;;;;;;;0.20;0.20;;;;;;;2.84;78.56;98822.06;4954750;29;20379;-76
2024/01/27 00:57:54;;;;;;;1.05;1.05;;;;;;;2.83;78.65;98821.22;4954170;29;20038;-77
2024/01/27 01:00:23;;;;;;;0.80;0.80;;;;;;;2.79;78.62;98827.69;4955009;28;20059;-77
2024/01/27 01:02:51;;;;;;;0.50;0.30;;;;;;;2.85;78.59;98829.00;4955224;29;20384;-78
2024/01/27 01:05:19;;;;;;;1.25;1.25;;;;;;;2.79;78.58;98826.84;4954696;28;20047;-76
2024/01/27 01:07:46;;;;;;;1.13;1.13;;;;;;;2.86;78.18;98833.34;4955370;29;20047;-76
2024/01/27 01:10:14;;;;;;;1.10;1.10;;;;;;;2.88;77.95;98839.34;4952364;28;20479;-77
2024/01/27 01:12:41;;;;;;;1.05;1.05;;;;;;;2.80;78.05;98833.81;4951213;28;20055;-76
2024/01/27 01:15:09;;;;;;;0.88;0.88;;;;;;;2.82;77.70;98840.63;4953437;28;20059;-77
2024/01/27 01:17:38;;;;;;;0.82;0.82;;;;;;;2.75;77.72;98841.19;4954609;29;20592;-76
2024/01/27 01:20:07;;;;;;;1.45;1.45;;;;;;;2.70;77.73;98838.09;4948996;28;20102;-78
2024/01/27 01:22:35;;;;;;;1.17;1.17;;;;;;;2.70;77.57;98841.53;4955147;29;20066;-75
2024/01/27 01:25:02;;;;;;;1.10;1.10;;;;;;;2.73;77.04;98837.84;4954458;28;20055;-76
2024/01/27 01:27:30;;;;;;;1.15;1.15;;;;;;;2.73;76.71;98843.09;4954120;29;20039;-77
2024/01/27 01:29:58;;;;;;;1.13;1.13;;;;;;;2.75;76.75;98839.41;4955662;28;20109;-76
2024/01/27 01:32:25;;;;;;;0.40;0.40;;;;;;;2.80;76.91;98845.16;4954913;28;20387;-76
2024/01/27 01:34:54;;;;;;;1.00;1.00;;;;;;;2.87;75.80;98862.22;4955014;28;20138;-76
2024/01/27 01:37:22;;;;;;;1.23;1.23;;;;;;;2.80;75.02;98854.88;4954475;29;20055;-75
2024/01/27 01:39:49;;;;;;;0.68;0.68;;;;;;;2.81;74.47;98851.28;4954536;28;20066;-76
2024/01/27 01:42:17;;;;;;;1.05;1.05;;;;;;;2.82;74.27;98852.97;4953899;29;20039;-76
2024/01/27 01:44:45;;;;;;;0.80;0.80;;;;;;;2.78;74.28;98864.69;4954561;29;20043;-77
2024/01/27 01:47:13;;;;;;;0.82;0.82;;;;;;;2.80;74.33;98862.81;4954164;28;20055;-77
2024/01/27 01:49:41;;;;;;;0.90;0.90;;;;;;;2.87;72.30;98856.94;4953365;28;20558;-77
2024/01/27 01:52:10;;;;;;;0.90;0.90;;;;;;;2.82;73.03;98864.34;4953061;29;20051;-77
2024/01/27 01:54:38;;;;;;;1.08;1.08;;;;;;;2.77;73.21;98869.13;4953869;29;20051;-77
2024/01/27 01:57:06;;;;;;;1.17;1.17;;;;;;;2.76;72.55;98877.16;4953015;28;20075;-75
2024/01/27 01:59:34;;;;;;;0.60;0.60;;;;;;;2.72;72.76;98876.53;4952668;28;20469;-74
2024/01/27 02:02:01;;;;;;;1.00;1.00;;;;;;;2.72;72.11;98889.69;4953244;29;20547;-76
2024/01/27 02:04:29;;;;;;;1.00;1.00;;;;;;;2.79;71.82;98890.13;4953168;29;20050;-74
2024/01/27 02:06:56;;;;;;;1.15;1.15;;;;;;;2.76;71.70;98890.31;4953104;28;20036;-77
2024/01/27 02:09:25;;;;;;;0.40;0.40;;;;;;;2.72;71.50;98894.13;4951147;28;20399;-74
2024/01/27 02:11:53;;;;;;;1.13;1.13;;;;;;;2.77;71.05;98907.84;4951654;29;20043;-77
2024/01/27 02:14:25;;;;;;;1.17;1.17;;;;;;;2.76;71.38;98903.50;4953380;29;20130;-77
2024/01/27 02:16:52;;;;;;;1.10;1.10;;;;;;;2.69;71.49;98900.50;4948486;28;20106;-76
2024/01/27 02:19:20;;;;;;;0.55;0.55;;;;;;;2.73;70.81;98909.00;4951531;28;20317;-76
2024/01/27 02:21:48;;;;;;;1.25;1.17;;;;;;;2.72;70.36;98909.94;4953619;28;20047;-76
2024/01/27 02:24:16;;;;;;;0.95;0.90;;;;;;;2.71;70.31;98910.91;4953943;29;20052;-79
2024/01/27 02:26:44;;;;;;;0.90;0.90;;;;;;;2.71;70.55;98918.81;4936429;29;20039;-78
2024/01/27 02:29:12;;;;;;;1.08;1.08;;;;;;;2.70;70.41;98917.16;4951554;28;20087;-77
2024/01/27 02:31:39;;;;;;;1.05;1.05;;;;;;;2.72;70.28;98920.50;4953121;29;20043;-78
2024/01/27 02:34:07;;;;;;;0.95;0.95;;;;;;;2.70;70.31;98922.44;4953559;29;20047;-77
2024/01/27 02:36:34;;;;;;;0.90;0.90;;;;;;;2.69;70.42;98907.56;4950952;29;20521;-75
2024/01/27 02:39:02;;;;;;;1.10;1.10;;;;;;;2.63;70.73;98914.09;4952434;28;20050;-75
2024/01/27 02:41:35;;;;;;;0.93;0.93;;;;;;;2.65;71.19;98908.72;4952729;29;20506;-75
2024/01/27 02:44:02;;;;;;;1.20;1.10;;;;;;;2.64;70.16;98910.53;4935580;29;20565;-75
2024/01/27 02:46:30;;;;;;;1.50;1.50;;;;;;;2.58;70.63;98911.81;4953111;28;20511;-75
2024/01/27 02:48:58;;;;;;;0.88;0.88;;;;;;;2.68;70.58;98926.97;4952361;28;20039;-77
2024/01/27 02:51:25;;;;;;;0.88;0.88;;;;;;;2.76;70.62;98914.06;4952038;29;20058;-76
2024/01/27 02:53:53;;;;;;;1.17;1.17;;;;;;;2.71;70.97;98911.75;4952666;29;20514;-77
2024/01/27 02:56:21;;;;;;;0.95;0.95;;;;;;;2.69;70.82;98913.66;4952545;28;20363;-77
2024/01/27 02:58:49;;;;;;;1.17;1.17;;;;;;;2.60;71.32;98914.31;4951628;28;20043;-77
2024/01/27 03:01:17;;;;;;;0.82;0.82;;;;;;;2.59;71.62;98910.03;4953135;29;20129;-76
2024/01/27 03:03:45;;;;;;;1.00;1.00;;;;;;;2.64;71.94;98915.78;4953067;29;20514;-77
2024/01/27 03:06:12;;;;;;;1.00;1.00;;;;;;;2.67;72.24;98906.81;4952190;28;20081;-77
2024/01/27 03:08:40;;;;;;;0.85;0.85;;;;;;;2.72;72.29;98918.69;4952294;28;20518;-77
2024/01/27 03:11:08;;;;;;;0.70;0.70;;;;;;;2.65;72.20;98921.91;4954472;28;20044;-77
2024/01/27 03:13:35;;;;;;;1.13;1.13;;;;;;;2.57;72.84;98918.03;4951311;28;20045;-77
2024/01/27 03:16:09;;;;;;;0.85;0.85;;;;;;;2.60;72.83;98924.06;4954272;28;20118;-77
2024/01/27 03:18:37;;;;;;;0.60;0.60;;;;;;;2.63;72.80;98929.91;4951605;28;20483;-78
2024/01/27 03:21:07;;;;;;;0.95;0.95;;;;;;;2.60;73.05;98921.41;4952050;28;20102;-76
2024/01/27 03:23:35;;;;;;;0.90;0.90;;;;;;;2.63;73.69;98921.16;4953459;29;20051;-78
2024/01/27 03:26:03;;;;;;;1.00;1.00;;;;;;;2.63;73.35;98916.75;4935861;28;20075;-76
2024/01/27 03:28:31;;;;;;;1.17;1.17;;;;;;;2.60;73.54;98921.41;4935755;29;20068;-77
2024/01/27 03:30:59;;;;;;;1.10;1.10;;;;;;;2.56;73.56;98923.41;4950881;28;20491;-76
2024/01/27 03:33:30;;;;;;;0.98;0.98;;;;;;;2.49;73.70;98933.53;4952403;29;20537;-77
2024/01/27 03:35:58;;;;;;;1.00;1.00;;;;;;;2.50;73.68;98931.75;4952774;28;20047;-76
2024/01/27 03:38:26;;;;;;;1.10;1.10;;;;;;;2.51;73.61;98934.28;4952627;28;20051;-76
2024/01/27 03:40:53;;;;;;;0.95;0.95;;;;;;;2.46;73.75;98936.41;4951482;28;20138;-75
2024/01/27 03:43:21;;;;;;;1.02;1.02;;;;;;;2.47;73.55;98939.91;4952922;28;20067;-78
2024/01/27 03:45:48;;;;;;;1.02;1.02;;;;;;;2.37;73.67;98942.34;4953600;28;20047;-78
2024/01/27 03:48:16;;;;;;;1.17;1.17;;;;;;;2.33;73.96;98940.03;4953006;28;20049;-78
2024/01/27 03:50:48;;;;;;;1.13;1.13;;;;;;;2.27;73.92;98930.78;4952499;28;20123;-77
2024/01/27 03:53:15;;;;;;;1.42;1.40;;;;;;;2.23;74.19;98937.22;4951948;28;20055;-78
2024/01/27 03:55:43;;;;;;;0.95;0.95;;;;;;;2.21;73.90;98945.22;4951902;28;20510;-78
2024/01/27 03:58:10;;;;;;;1.05;1.05;;;;;;;2.20;73.85;98940.06;4949128;29;20051;-77
2024/01/27 04:00:38;;;;;;;0.82;0.82;;;;;;;2.16;74.08;98947.34;4954177;28;20039;-76
2024/01/27 04:03:06;;;;;;;0.30;0.30;;;;;;;2.13;73.83;98937.03;4956087;28;20047;-74
2024/01/27 04:05:33;;;;;;;1.08;1.08;;;;;;;2.17;73.87;98951.69;4954578;28;20049;-76
2024/01/27 04:08:02;;;;;;;1.27;1.27;;;;;;;2.27;73.52;98957.13;4931686;29;20137;-75
2024/01/27 04:10:30;;;;;;;1.45;1.35;;;;;;;2.29;72.74;98957.00;4953630;28;20041;-75
2024/01/27 04:12:58;;;;;;;0.98;0.98;;;;;;;2.35;72.46;98969.75;4946616;28;20045;-75
2024/01/27 04:15:25;;;;;;;1.38;1.33;;;;;;;2.21;72.87;98960.19;4954899;28;20066;-75
2024/01/27 04:17:54;;;;;;;0.98;0.98;;;;;;;2.15;72.95;98968.53;4950257;28;20110;-77
2024/01/27 04:20:22;;;;;;;1.15;1.15;;;;;;;2.10;73.06;98963.56;4960919;28;20043;-77
2024/01/27 04:22:49;;;;;;;1.23;1.20;;;;;;;2.06;73.20;98958.66;4961131;28;20066;-78
2024/01/27 04:25:18;;;;;;;0.93;0.93;;;;;;;2.08;73.25;98967.25;4963296;28;20043;-76
2024/01/27 04:27:46;;;;;;;1.25;1.25;;;;;;;2.09;73.13;98964.53;4942917;29;20047;-77
2024/01/27 04:30:13;;;;;;;0.95;0.95;;;;;;;2.20;72.31;98979.56;4954603;28;20050;-75
2024/01/27 04:32:41;;;;;;;0.85;0.85;;;;;;;2.14;72.59;98977.38;4953951;28;20118;-77
2024/01/27 04:35:09;;;;;;;1.23;1.23;;;;;;;2.11;72.83;98973.16;4951577;28;20533;-78
2024/01/27 04:37:37;;;;;;;1.00;1.00;;;;;;;2.10;72.72;98981.16;4956162;28;20158;-78
2024/01/27 04:40:06;;;;;;;1.27;1.27;;;;;;;2.06;72.82;98984.97;4952343;28;20053;-76
2024/01/27 04:42:35;;;;;;;0.60;0.60;;;;;;;2.07;72.68;98991.94;4950901;28;20484;-74
2024/01/27 04:45:04;;;;;;;1.38;1.38;;;;;;;1.99;72.97;98981.91;4954425;28;20070;-74
2024/01/27 04:47:32;;;;;;;0.50;0.50;;;;;;;2.01;73.03;98987.06;4953466;28;20504;-76
2024/01/27 04:50:00;;;;;;;1.48;1.48;;;;;;;1.98;72.99;98988.13;4954089;28;20130;-77
2024/01/27 04:52:28;;;;;;;0.88;0.88;;;;;;;1.91;73.33;98999.19;4954372;28;20043;-76
2024/01/27 04:54:55;;;;;;;0.90;0.90;;;;;;;1.92;73.40;98990.34;4953885;28;20055;-76
2024/01/27 04:57:23;;;;;;;1.02;1.02;;;;;;;1.95;73.55;99000.66;4937754;29;20066;-78
2024/01/27 04:59:52;;;;;;;0.40;0.40;;;;;;;1.92;73.42;98998.25;4938069;29;20474;-78
2024/01/27 05:02:19;;;;;;;0.50;0.50;;;;;;;1.87;73.63;98995.91;4958103;28;20558;-77
2024/01/27 05:04:47;;;;;;;1.15;1.15;;;;;;;1.79;73.71;99004.34;4956835;28;20086;-78
2024/01/27 05:07:15;;;;;;;1.08;1.08;;;;;;;1.84;73.54;99004.88;4957604;28;20066;-77
2024/01/27 05:09:43;;;;;;;0.28;0.28;;;;;;;1.83;73.69;99011.09;4952267;28;20052;-78
2024/01/27 05:12:10;;;;;;;0.75;0.75;;;;;;;1.83;73.50;99012.88;4948271;28;20089;-76
2024/01/27 05:14:38;;;;;;;0.82;0.82;;;;;;;1.88;73.50;99010.75;4938898;29;20057;-76
2024/01/27 05:17:07;;;;;;;1.05;1.05;;;;;;;1.84;73.38;99004.03;4958015;28;20047;-77
2024/01/27 05:19:35;;;;;;;0.55;0.55;;;;;;;1.80;73.71;99006.03;4956720;28;20476;-77
2024/01/27 05:22:02;;;;;;;1.30;1.30;;;;;;;1.78;73.66;99001.81;4955988;28;20039;-76
2024/01/27 05:24:30;;;;;;;1.13;1.13;;;;;;;1.81;73.72;99012.13;4940157;29;20051;-77
2024/01/27 05:26:58;;;;;;;1.20;1.20;;;;;;;1.86;73.54;99009.19;4959020;28;20095;-77
2024/01/27 05:29:26;;;;;;;1.10;1.10;;;;;;;1.79;73.76;99003.50;4955893;28;20062;-77
2024/01/27 05:31:54;;;;;;;1.05;1.05;;;;;;;1.86;73.59;99001.31;4950027;29;20123;-76
2024/01/27 05:34:23;;;;;;;1.10;1.10;;;;;;;1.84;73.45;98998.78;4954501;28;20083;-77
2024/01/27 05:36:51;;;;;;;1.15;1.15;;;;;;;1.82;73.21;99009.41;4956988;23;20063;-72
2024/01/27 05:39:18;;;;;;;1.02;1.02;;;;;;;1.84;73.59;99022.47;4916725;29;20056;-72
2024/01/27 05:41:46;;;;;;;1.65;1.65;;;;;;;1.90;73.94;99022.03;4920443;29;20039;-72
2024/01/27 05:44:14;;;;;;;0.50;0.50;;;;;;;1.94;74.49;99022.69;4919264;29;20463;-72
2024/01/27 05:46:42;;;;;;;1.00;1.00;;;;;;;1.82;73.24;99016.44;4913742;29;20080;-72
2024/01/27 05:49:09;;;;;;;1.00;1.00;;;;;;;1.72;73.66;99020.66;4914788;29;20064;-72
2024/01/27 05:51:39;;;;;;;0.85;0.85;;;;;;;1.64;73.79;99018.56;4914487;29;20042;-72
2024/01/27 05:54:06;;;;;;;1.08;1.08;;;;;;;1.67;74.07;99014.84;4915500;29;20107;-72
2024/01/27 05:56:38;;;;;;;0.40;0.30;;;;;;;1.63;74.08;99011.59;4911329;29;20479;-72
2024/01/27 05:59:05;;;;;;;1.33;1.33;;;;;;;1.52;74.63;99016.75;4911181;29;20056;-72
2024/01/27 06:01:33;;;;;;;1.13;1.10;;;;;;;1.48;74.75;99015.25;4914611;29;20123;-71
2024/01/27 06:04:00;;;;;;;0.20;0.20;;;;;;;1.47;74.76;99026.72;4912916;29;20456;-72
2024/01/27 06:06:28;;;;;;;1.15;1.15;;;;;;;1.56;74.57;99017.38;4910981;29;20058;-72
2024/01/27 06:08:57;;;;;;;1.63;1.63;;;;;;;1.46;74.69;99011.88;4906669;29;20700;-72
2024/01/27 06:11:25;;;;;;;0.85;0.85;;;;;;;1.41;74.81;99013.97;4914147;29;20043;-72
2024/01/27 06:13:52;;;;;;;1.45;1.35;;;;;;;1.30;75.11;99016.47;4914667;29;20074;-72
2024/01/27 06:16:20;;;;;;;1.13;1.13;;;;;;;1.32;75.16;99020.69;4914753;29;20059;-72
2024/01/27 06:18:47;;;;;;;1.10;1.10;;;;;;;1.22;75.41;99030.13;4915083;29;20119;-73
2024/01/27 06:21:15;;;;;;;1.25;1.15;;;;;;;1.18;75.83;99033.06;4912142;29;20159;-72
2024/01/27 06:23:43;;;;;;;1.20;1.10;;;;;;;1.13;75.95;99040.41;4913876;29;20127;-72
2024/01/27 06:26:14;;;;;;;0.90;0.90;;;;;;;1.08;76.05;99032.81;4909887;29;20531;-72
2024/01/27 06:28:42;;;;;;;0.95;0.95;;;;;;;1.03;76.22;99038.38;4905779;29;20048;-71
2024/01/27 06:31:09;;;;;;;0.50;0.50;;;;;;;1.04;76.35;99039.19;4913177;29;20048;-72
2024/01/27 06:33:37;;;;;;;0.95;0.95;;;;;;;1.07;76.09;99039.84;4914684;29;20048;-71
2024/01/27 06:36:05;;;;;;;0.30;0.30;;;;;;;1.10;76.14;99051.97;4911353;29;20496;-72
2024/01/27 06:38:33;;;;;;;1.08;1.08;;;;;;;1.12;75.96;99050.09;4912510;29;20048;-72
2024/01/27 06:41:01;;;;;;;1.15;1.15;;;;;;;1.09;76.14;99061.63;4913128;29;20059;-72
2024/01/27 06:43:30;;;;;;;0.73;0.73;;;;;;;1.10;76.06;99058.06;4914647;29;20059;-73
2024/01/27 06:45:57;;;;;;;1.08;1.08;;;;;;;1.17;76.10;99057.66;4911289;29;20510;-73
2024/01/27 06:48:26;;;;;;;0.50;0.50;;;;;;;1.21;76.19;99067.03;4908687;29;20431;-73
2024/01/27 06:50:54;;;;;;;0.95;0.95;;;;;;;1.24;76.36;99070.34;4913724;29;20052;-72
2024/01/27 06:53:21;;;;;;;1.00;1.00;;;;;;;1.29;75.95;99080.53;4913961;29;20044;-73
2024/01/27 06:55:49;;;;;;;0.90;0.90;;;;;;;1.30;75.58;99076.97;4914126;29;20479;-72
2024/01/27 06:58:17;;;;;;;0.82;0.82;;;;;;;1.36;75.11;99084.44;4912768;29;20062;-72
2024/01/27 07:00:46;;;;;;;1.23;1.23;;;;;;;1.32;75.53;99075.09;4903749;29;20187;-72
2024/01/27 07:03:13;;;;;;;1.42;1.42;;;;;;;1.27;75.60;99071.91;4913251;29;20040;-72
2024/01/27 07:05:41;;;;;;;0.95;0.95;;;;;;;1.24;75.84;99075.59;4911797;29;20049;-72
2024/01/27 07:08:09;;;;;;;0.60;0.60;;;;;;;1.24;75.58;99080.84;4912907;29;20419;-71
2024/01/27 07:10:37;;;;;;;1.17;1.17;;;;;;;1.26;75.61;99083.34;4914907;29;20040;-72
2024/01/27 07:13:06;;;;;;;1.33;1.33;;;;;;;1.19;76.04;99090.81;4909693;29;20045;-71
2024/01/27 07:15:34;;;;;;;1.30;1.30;;;;;;;1.21;76.24;99085.44;4913604;29;20131;-71
2024/01/27 07:18:03;;;;;;;0.98;0.98;;;;;;;1.22;76.05;99081.88;4913055;29;20048;-72
2024/01/27 07:20:31;;;;;;;1.13;1.13;;;;;;;1.23;76.10;99083.56;4913796;29;20054;-71
2024/01/27 07:22:58;;;;;;;0.50;0.40;;;;;;;1.25;75.94;99073.78;4915601;29;20419;-72
2024/01/27 07:25:28;;;;;;;1.17;1.17;;;;;;;1.29;75.95;99072.66;4915168;29;20074;-72
2024/01/27 07:27:55;;;;;;;1.05;1.05;;;;;;;1.32;76.00;99077.72;4914143;29;20040;-73
2024/01/27 07:30:23;;;;;;;1.05;1.05;;;;;;;1.32;76.13;99072.44;4914036;29;20040;-72
2024/01/27 07:32:51;;;;;;;1.63;1.63;;;;;;;1.40;76.14;99070.16;4915887;29;20036;-72
2024/01/27 07:35:19;;;;;;;1.00;1.00;;;;;;;1.39;76.12;99074.56;4918043;29;20040;-73
2024/01/27 07:37:47;;;;;;;1.02;1.02;;;;;;;1.43;76.06;99076.06;4915903;29;20519;-72
2024/01/27 07:40:15;;;;;;;1.15;1.15;;;;;;;1.46;76.02;99067.94;4915559;29;20058;-73
2024/01/27 07:42:43;;;;;;;1.13;1.13;;;;;;;1.46;76.09;99083.75;4915409;29;20040;-72
2024/01/27 07:45:10;;;;;;;1.00;1.00;;;;;;;1.46;76.70;99078.47;4919064;29;20044;-72
2024/01/27 07:47:38;;;;;;;1.20;1.20;;;;;;;1.55;75.98;99084.09;4919623;29;20051;-70
2024/01/27 07:50:07;;;;;;;0.98;0.98;;;;;;;1.63;75.83;99087.06;4937875;29;20044;-70
2024/01/27 07:52:36;;;;;;;1.13;1.13;;;;;;;1.66;75.87;99094.75;4914668;29;20495;-70
2024/01/27 07:55:04;;;;;;;1.45;1.45;;;;;;;1.71;75.70;99096.13;4923840;29;20059;-70
2024/01/27 07:57:32;;;;;;;1.52;1.35;;;;;;;1.80;76.20;99095.50;4917303;29;20504;-72
2024/01/27 07:59:59;;;;;;;1.52;1.52;;;;;;;1.90;76.06;99103.63;4919209;29;20044;-70
2024/01/27 08:02:30;;;;;;;0.70;0.60;;;;;;;1.97;75.02;99106.72;4915634;29;20432;-70
2024/01/27 08:04:58;;;;;;;1.33;1.33;;;;;;;2.03;75.60;99119.44;4917305;29;20507;-70
2024/01/27 08:07:25;;;;;;;1.38;1.38;;;;;;;2.09;76.00;99117.22;4915596;29;20048;-70
2024/01/27 08:09:56;;;;;;;1.17;1.17;;;;;;;2.16;75.95;99115.06;4915911;29;20114;-71
2024/01/27 08:12:24;;;;;;;0.98;0.98;;;;;;;2.18;75.70;99113.97;4912477;29;20620;-71
2024/01/27 08:14:52;;;;;;;2.67;2.58;;;;;;;2.20;75.48;99124.41;4916105;29;20087;-71
2024/01/27 08:17:19;;;;;;;1.10;1.10;;;;;;;2.22;75.44;99123.38;4909504;29;20127;-69
2024/01/27 08:19:47;;;;;;;1.00;1.00;;;;;;;2.20;74.75;99121.78;4917103;29;20126;-70
2024/01/27 08:22:15;;;;;;;1.23;1.23;;;;;;;2.24;75.00;99125.91;4916195;29;20075;-70
2024/01/27 08:24:42;;;;;;;0.77;0.77;;;;;;;2.20;74.76;99127.03;4916622;29;20048;-70
2024/01/27 08:27:11;;;;;;;0.40;0.40;;;;;;;2.21;74.43;99132.22;4915488;29;20040;-69
2024/01/27 08:29:39;;;;;;;0.88;0.88;;;;;;;2.25;74.00;99132.84;4916564;29;20076;-70
2024/01/27 08:32:07;;;;;;;1.45;1.45;;;;;;;2.29;74.03;99146.63;4915723;29;20047;-70
2024/01/27 08:34:35;;;;;;;1.00;1.00;;;;;;;2.35;74.36;99143.59;4915138;29;20051;-70
2024/01/27 08:37:02;;;;;;;0.43;0.43;;;;;;;2.40;74.55;99144.13;4913567;29;20468;-70
2024/01/27 08:39:30;;;;;;;1.60;1.50;;;;;;;2.44;74.10;99149.09;4916494;29;20044;-70
2024/01/27 08:41:58;;;;;;;1.05;1.05;;;;;;;2.49;74.38;99157.50;4913861;29;20071;-70
2024/01/27 08:44:27;;;;;;;0.20;0.20;;;;;;;2.54;73.50;99159.84;4917224;29;20390;-70
2024/01/27 08:46:54;;;;;;;0.95;0.95;;;;;;;2.57;73.54;99160.47;4916326;29;20519;-70
2024/01/27 08:49:26;;;;;;;1.23;1.23;;;;;;;2.63;73.68;99153.91;4915765;29;20044;-70
2024/01/27 08:51:54;;;;;;;1.33;1.25;;;;;;;2.72;73.56;99163.81;4930234;29;20143;-70
2024/01/27 08:54:22;;;;;;;1.45;1.45;;;;;;;2.76;73.08;99164.47;4916684;29;20527;-69
2024/01/27 08:56:50;;;;;;;2.28;2.17;;;;;;;2.79;72.77;99162.47;4913984;29;20567;-70
2024/01/27 08:59:18;;;;;;;0.90;0.90;;;;;;;2.91;72.54;99172.13;4917185;29;20048;-71
2024/01/27 09:01:47;;;;;;;0.98;0.98;;;;;;;3.02;72.26;99163.47;4915355;29;20047;-70
2024/01/27 09:04:14;;;;;;;1.58;1.58;;;;;;;3.03;71.83;99170.44;4916190;29;20500;-70
2024/01/27 09:06:42;;;;;;;1.17;1.17;;;;;;;3.01;71.90;99161.78;4915504;29;20500;-69
2024/01/27 09:09:10;;;;;;;0.93;0.93;;;;;;;3.02;72.20;99181.94;4914578;29;20055;-70
2024/01/27 09:11:37;;;;;;;1.17;1.17;;;;;;;3.05;71.56;99173.81;4915224;29;20062;-70
2024/01/27 09:14:07;;;;;;;0.73;0.73;;;;;;;3.08;71.92;99170.13;4915698;29;20052;-71
2024/01/27 09:16:34;;;;;;;1.25;1.25;;;;;;;3.14;71.87;99170.50;4917925;29;20091;-69
2024/01/27 09:19:03;;;;;;;1.00;1.00;;;;;;;3.18;71.22;99179.06;4916359;29;20057;-70
2024/01/27 09:21:32;;;;;;;0.70;0.70;;;;;;;3.25;71.25;99178.50;4916487;29;20051;-70
2024/01/27 09:24:02;;;;;;;1.13;1.13;;;;;;;3.32;70.98;99190.31;4916111;29;20044;-70
2024/01/27 09:26:30;;;;;;;0.20;0.20;;;;;;;3.40;70.39;99191.56;4915103;29;20441;-70
2024/01/27 09:28:57;;;;;;;0.98;0.98;;;;;;;3.35;70.82;99191.88;4914820;29;20052;-70
2024/01/27 09:31:25;;;;;;;0.80;0.80;;;;;;;3.56;69.68;99192.13;4915354;29;20052;-70
2024/01/27 09:33:54;;;;;;;0.75;0.75;;;;;;;3.53;69.85;99200.28;4915634;29;20079;-70
2024/01/27 09:36:24;;;;;;;0.98;0.98;;;;;;;3.54;69.41;99196.69;4913445;29;20055;-70
2024/01/27 09:38:52;;;;;;;0.98;0.98;;;;;;;3.58;69.71;99190.22;4914891;29;20056;-70
2024/01/27 09:41:19;;;;;;;0.90;0.90;;;;;;;3.55;69.93;99193.09;4912462;29;20496;-70
2024/01/27 09:43:48;;;;;;;1.23;1.23;;;;;;;3.58;70.14;99200.78;4915117;29;20080;-71
2024/01/27 09:46:16;;;;;;;0.65;0.47;;;;;;;3.67;69.94;99197.47;4913810;29;20056;-70
2024/01/27 09:48:44;;;;;;;0.90;0.90;;;;;;;3.77;69.04;99190.56;4916143;29;20051;-71
2024/01/27 09:51:12;;;;;;;1.30;1.30;;;;;;;3.75;69.48;99187.19;4916689;29;20082;-71
2024/01/27 09:53:41;;;;;;;0.45;0.45;;;;;;;3.84;68.73;99188.34;4915425;29;20417;-71
2024/01/27 09:56:09;;;;;;;1.00;1.00;;;;;;;3.85;69.37;99192.66;4912240;29;20064;-72
2024/01/27 09:58:38;;;;;;;1.10;1.10;;;;;;;3.89;68.98;99192.31;4915546;29;20441;-71
2024/01/27 10:01:07;;;;;;;0.95;0.95;;;;;;;3.93;68.94;99198.22;4913808;29;20052;-71
2024/01/27 10:03:35;;;;;;;0.93;0.93;;;;;;;4.03;68.68;99205.38;4914610;29;20040;-71
2024/01/27 10:06:04;;;;;;;1.10;1.10;;;;;;;4.09;68.21;99208.47;4910374;29;20063;-71
2024/01/27 10:08:32;;;;;;;0.95;0.95;;;;;;;4.14;68.24;99203.72;4915028;29;20076;-71
2024/01/27 10:11:07;;;;;;;1.40;1.30;;;;;;;4.19;68.12;99196.28;4914782;29;20515;-71
2024/01/27 10:13:34;;;;;;;1.20;1.20;;;;;;;4.29;68.26;99203.41;4910177;29;20051;-71
2024/01/27 10:16:03;;;;;;;0.90;0.90;;;;;;;4.30;67.52;99193.66;4912175;29;20055;-72
2024/01/27 10:18:30;;;;;;;0.57;0.57;;;;;;;4.31;67.55;99195.34;4913797;29;20050;-71
2024/01/27 10:20:59;;;;;;;0.40;0.40;;;;;;;4.36;67.94;99190.59;4913355;29;20408;-71
2024/01/27 10:23:26;;;;;;;0.98;0.98;;;;;;;4.46;67.81;99191.56;4914234;29;20036;-69
2024/01/27 10:25:54;;;;;;;1.05;1.05;;;;;;;4.45;67.26;99186.41;4912986;29;20050;-69
2024/01/27 10:28:26;;;;;;;1.02;1.02;;;;;;;4.50;66.92;99194.81;4908406;29;20048;-69
2024/01/27 10:30:54;;;;;;;0.90;0.90;;;;;;;4.66;66.75;99190.03;4913762;29;20047;-71
2024/01/27 10:33:22;;;;;;;0.80;0.80;;;;;;;4.56;66.81;99181.97;4913086;29;20052;-71
2024/01/27 10:35:58;;;;;;;0.73;0.73;;;;;;;4.58;67.15;99187.13;4913788;29;20051;-71
2024/01/27 10:38:34;;;;;;;0.98;0.98;;;;;;;4.60;66.74;99186.06;4914169;29;20072;-71
2024/01/27 10:41:02;;;;;;;0.52;0.52;;;;;;;4.65;66.79;99197.13;4911404;29;20492;-71
2024/01/27 10:43:32;;;;;;;1.15;1.15;;;;;;;4.67;66.76;99197.03;4914116;29;20051;-71
2024/01/27 10:46:06;;;;;;;1.27;1.27;;;;;;;4.72;65.95;99195.69;4912023;29;20063;-71
2024/01/27 10:48:35;;;;;;;1.13;1.13;;;;;;;4.73;66.70;99192.09;4905450;29;20048;-71
2024/01/27 10:51:08;;;;;;;1.40;1.40;;;;;;;4.79;66.63;99191.59;4906887;29;20080;-71
2024/01/27 10:53:39;;;;;;;0.95;0.95;;;;;;;4.81;65.54;99191.50;4912375;29;20044;-71
2024/01/27 10:56:11;;;;;;;1.02;1.02;;;;;;;4.91;65.44;99199.56;4912495;29;20082;-71
2024/01/27 10:58:41;;;;;;;1.05;1.05;;;;;;;4.94;65.36;99191.38;4913752;29;20607;-71
2024/01/27 11:01:11;;;;;;;1.17;1.10;;;;;;;4.97;64.78;99194.66;4904677;29;20156;-71
2024/01/27 11:03:41;;;;;;;1.35;1.30;;;;;;;4.99;64.97;99197.97;4913236;29;20050;-71
2024/01/27 11:06:09;;;;;;;1.08;1.08;;;;;;;5.00;65.45;99196.19;4914998;29;20519;-71
2024/01/27 11:08:38;;;;;;;0.85;0.85;;;;;;;5.07;65.27;99200.06;4915983;29;20050;-71
2024/01/27 11:11:10;;;;;;;1.05;1.05;;;;;;;5.24;64.57;99194.25;4917014;29;20133;-71
2024/01/27 11:13:40;;;;;;;1.08;1.08;;;;;;;5.19;64.32;99193.81;4918481;29;20036;-71
2024/01/27 11:16:16;;;;;;;1.08;1.08;;;;;;;5.20;64.16;99203.41;4911669;29;20078;-71
2024/01/27 11:18:43;;;;;;;1.15;1.15;;;;;;;5.25;63.75;99190.66;4917845;29;20048;-71
2024/01/27 11:21:14;;;;;;;1.00;1.00;;;;;;;5.31;63.67;99197.25;4916540;29;20059;-71
2024/01/27 11:23:42;;;;;;;1.00;1.00;;;;;;;5.29;63.12;99200.06;4914292;29;20567;-71
2024/01/27 11:26:14;;;;;;;1.23;1.23;;;;;;;5.28;63.12;99214.25;4916700;29;20075;-71
2024/01/27 11:28:43;;;;;;;1.10;1.10;;;;;;;5.32;63.17;99222.75;4918346;29;20040;-71
2024/01/27 11:31:11;;;;;;;1.05;1.05;;;;;;;5.39;63.29;99210.75;4915927;29;20051;-71
2024/01/27 11:33:43;;;;;;;0.93;0.93;;;;;;;5.42;62.49;99215.78;4915607;29;20047;-72
2024/01/27 11:36:21;;;;;;;0.82;0.82;;;;;;;5.39;62.29;99213.41;4918048;29;20059;-71
2024/01/27 11:38:49;;;;;;;1.00;1.00;;;;;;;5.37;62.23;99208.22;4917909;29;20059;-71
2024/01/27 11:41:27;;;;;;;1.00;1.00;;;;;;;5.52;62.60;99212.28;4921778;29;20058;-71
2024/01/27 11:43:56;;;;;;;1.17;1.17;;;;;;;5.62;61.90;99215.03;4934699;29;20039;-71
2024/01/27 11:46:24;;;;;;;0.88;0.88;;;;;;;5.75;61.67;99217.53;4931484;29;20059;-71